createdAt,value
2023-05-10T00:00:05.817Z,4.88
2023-05-10T00:02:07.761Z,4.60
2023-05-10T00:04:09.740Z,5.00
2023-05-10T00:06:11.648Z,4.28
2023-05-10T00:08:13.475Z,4.70
2023-05-10T00:10:15.514Z,4.00
2023-05-10T00:12:17.586Z,4.45
2023-05-10T00:14:19.812Z,4.47
2023-05-10T00:16:21.701Z,4.40
2023-05-10T00:18:23.634Z,4.82
2023-05-10T00:20:25.544Z,4.67
2023-05-10T00:22:27.406Z,4.05
2023-05-10T00:24:29.319Z,3.75
2023-05-10T00:26:31.149Z,3.60
2023-05-10T00:28:33.049Z,4.20
2023-05-10T00:30:34.929Z,4.30
2023-05-10T00:32:36.870Z,3.87
2023-05-10T00:34:38.875Z,3.90
2023-05-10T00:36:40.730Z,3.73
2023-05-10T00:38:42.613Z,4.33
2023-05-10T00:40:45.059Z,4.30
2023-05-10T00:42:46.889Z,4.10
2023-05-10T00:44:48.802Z,4.23
2023-05-10T00:46:50.631Z,4.28
2023-05-10T00:48:52.579Z,4.05
2023-05-10T00:50:54.415Z,4.13
2023-05-10T00:52:56.259Z,3.97
2023-05-10T00:54:58.273Z,4.70
2023-05-10T00:57:00.098Z,3.83
2023-05-10T00:59:01.982Z,4.07
2023-05-10T01:01:03.850Z,4.00
2023-05-10T01:03:05.759Z,4.45
2023-05-10T01:05:07.950Z,4.07
2023-05-10T01:07:09.774Z,4.55
2023-05-10T01:09:12.792Z,4.47
2023-05-10T01:11:14.727Z,4.40
2023-05-10T01:13:20.033Z,4.53
2023-05-10T01:15:21.927Z,4.63
2023-05-10T01:17:23.830Z,4.07
2023-05-10T01:19:27.262Z,4.45
2023-05-10T01:21:45.778Z,4.45
2023-05-10T01:24:16.283Z,4.20
2023-05-10T01:26:55.159Z,4.03
2023-05-10T01:29:06.088Z,4.53
2023-05-10T01:31:26.781Z,3.67
2023-05-10T01:33:33.631Z,5.15
2023-05-10T01:35:56.521Z,4.55
2023-05-10T01:37:58.314Z,4.20
2023-05-10T01:40:14.956Z,3.93
2023-05-10T01:42:24.499Z,4.20
2023-05-10T01:44:32.685Z,4.88
2023-05-10T01:46:38.080Z,5.10
2023-05-10T01:48:44.683Z,5.05
2023-05-10T01:50:46.924Z,4.80
2023-05-10T01:52:53.404Z,4.90
2023-05-10T01:55:06.854Z,4.57
2023-05-10T01:57:09.925Z,4.88
2023-05-10T01:59:14.503Z,5.15
2023-05-10T02:01:17.511Z,4.90
2023-05-10T02:03:20.019Z,5.28
2023-05-10T02:05:21.920Z,5.20
2023-05-10T02:07:24.450Z,4.82
2023-05-10T02:09:26.960Z,5.28
2023-05-10T02:11:29.363Z,5.22
2023-05-10T02:13:31.520Z,4.97
2023-05-10T02:15:33.493Z,4.78
2023-05-10T02:17:37.340Z,4.97
2023-05-10T02:19:41.278Z,4.85
2023-05-10T02:21:43.115Z,5.15
2023-05-10T02:23:44.911Z,4.80
2023-05-10T02:25:46.742Z,4.40
2023-05-10T02:27:48.714Z,5.63
2023-05-10T02:29:50.990Z,5.00
2023-05-10T02:31:53.734Z,5.28
2023-05-10T02:33:55.728Z,4.53
2023-05-10T02:35:57.565Z,4.15
2023-05-10T02:37:59.391Z,4.37
2023-05-10T02:40:01.302Z,4.93
2023-05-10T02:42:03.451Z,5.15
2023-05-10T02:44:05.275Z,5.00
2023-05-10T02:46:07.148Z,5.03
2023-05-10T02:48:09.245Z,4.60
2023-05-10T02:50:11.298Z,4.82
2023-05-10T02:52:13.150Z,5.28
2023-05-10T02:54:19.606Z,5.53
2023-05-10T02:56:26.885Z,4.47
2023-05-10T02:58:28.723Z,4.70
2023-05-10T03:00:30.592Z,5.30
2023-05-10T03:02:32.540Z,5.23
2023-05-10T03:04:34.639Z,5.50
2023-05-10T03:06:36.550Z,6.07
2023-05-10T03:08:38.550Z,5.70
2023-05-10T03:10:47.169Z,5.45
2023-05-10T03:13:23.145Z,5.93
2023-05-10T03:15:43.405Z,5.88
2023-05-10T03:17:48.414Z,4.53
2023-05-10T03:19:54.574Z,5.13
2023-05-10T03:21:56.420Z,5.72
2023-05-10T03:24:01.393Z,5.38
2023-05-10T03:26:03.316Z,4.80
2023-05-10T03:28:05.375Z,5.45
2023-05-10T03:30:09.187Z,5.20
2023-05-10T03:32:11.036Z,4.50
2023-05-10T03:34:12.921Z,5.63
2023-05-10T03:36:14.937Z,5.00
2023-05-10T03:38:16.948Z,4.95
2023-05-10T03:40:18.936Z,4.88
2023-05-10T03:42:20.973Z,4.50
2023-05-10T03:44:22.755Z,4.93
2023-05-10T03:46:24.574Z,4.85
2023-05-10T03:48:26.418Z,4.73
2023-05-10T03:50:28.477Z,4.70
2023-05-10T03:52:30.357Z,4.90
2023-05-10T03:54:32.149Z,4.70
2023-05-10T03:56:34.002Z,4.85
2023-05-10T03:58:36.094Z,5.10
2023-05-10T04:00:38.092Z,4.65
2023-05-10T04:02:40.170Z,5.55
2023-05-10T04:04:42.093Z,5.47
2023-05-10T04:06:43.954Z,4.30
2023-05-10T04:08:45.937Z,5.10
2023-05-10T04:10:47.733Z,5.03
2023-05-10T04:12:49.643Z,4.77
2023-05-10T04:14:52.199Z,4.85
2023-05-10T04:16:54.144Z,5.03
2023-05-10T04:18:55.965Z,4.93
2023-05-10T04:20:57.773Z,5.20
2023-05-10T04:22:59.585Z,5.03
2023-05-10T04:25:01.396Z,5.03
2023-05-10T04:27:03.216Z,4.60
2023-05-10T04:29:05.080Z,5.07
2023-05-10T04:31:09.151Z,5.38
2023-05-10T04:33:11.085Z,5.40
2023-05-10T04:35:13.137Z,5.40
2023-05-10T04:37:17.219Z,4.82
2023-05-10T04:39:19.224Z,4.60
2023-05-10T04:41:21.692Z,4.68
2023-05-10T04:43:23.503Z,4.72
2023-05-10T04:45:25.342Z,5.10
2023-05-10T04:47:27.261Z,4.93
2023-05-10T04:49:29.722Z,4.30
2023-05-10T04:51:32.390Z,5.28
2023-05-10T04:55:35.973Z,4.80
2023-05-10T04:57:37.835Z,5.13
2023-05-10T04:59:39.669Z,4.87
2023-05-10T05:01:41.524Z,5.30
2023-05-10T05:03:43.719Z,5.25
2023-05-10T05:05:46.006Z,4.38
2023-05-10T05:07:47.888Z,4.97
2023-05-10T05:09:49.827Z,4.47
2023-05-10T05:11:51.669Z,5.07
2023-05-10T05:13:53.547Z,4.30
2023-05-10T05:15:55.826Z,4.67
2023-05-10T05:17:57.700Z,4.63
2023-05-10T05:19:59.607Z,5.38
2023-05-10T05:22:01.456Z,5.10
2023-05-10T05:24:03.529Z,4.85
2023-05-10T05:26:05.437Z,4.22
2023-05-10T05:28:07.268Z,4.63
2023-05-10T05:30:09.672Z,4.40
2023-05-10T05:32:11.912Z,4.93
2023-05-10T05:34:13.746Z,4.13
2023-05-10T05:36:15.660Z,4.17
2023-05-10T05:38:18.512Z,4.55
2023-05-10T05:40:21.476Z,4.30
2023-05-10T05:42:23.414Z,4.32
2023-05-10T05:44:25.267Z,4.20
2023-05-10T05:46:27.158Z,4.00
2023-05-10T05:48:30.457Z,4.30
2023-05-10T05:50:32.515Z,4.13
2023-05-10T05:52:34.422Z,4.32
2023-05-10T05:54:36.249Z,4.47
2023-05-10T05:56:38.992Z,4.03
2023-05-10T06:00:42.850Z,4.07
2023-05-10T06:02:45.078Z,4.03
2023-05-10T06:04:47.478Z,3.47
2023-05-10T06:06:49.369Z,3.50
2023-05-10T06:08:51.244Z,3.65
2023-05-10T06:10:53.046Z,3.40
2023-05-10T06:12:55.255Z,3.38
2023-05-10T06:14:57.153Z,3.47
2023-05-10T06:17:00.825Z,3.10
2023-05-10T06:19:03.325Z,2.72
2023-05-10T06:21:05.315Z,3.05
2023-05-10T06:23:07.158Z,3.03
2023-05-10T06:25:09.735Z,3.20
2023-05-10T06:27:11.579Z,3.47
2023-05-10T06:29:13.429Z,3.07
2023-05-10T06:31:15.406Z,3.30
2023-05-10T06:33:17.258Z,2.70
2023-05-10T06:35:19.758Z,3.70
2023-05-10T06:37:21.722Z,3.28
2023-05-10T06:39:23.546Z,2.60
2023-05-10T06:41:25.434Z,4.07
2023-05-10T06:43:29.574Z,3.33
2023-05-10T06:45:31.498Z,3.13
2023-05-10T06:47:33.359Z,2.92
2023-05-10T06:49:35.257Z,2.97
2023-05-10T06:51:37.107Z,3.90
2023-05-10T06:53:38.938Z,3.20
2023-05-10T06:55:40.974Z,3.40
2023-05-10T06:57:42.861Z,3.70
2023-05-10T06:59:44.731Z,4.10
2023-05-10T07:01:46.769Z,4.30
2023-05-10T07:03:48.920Z,3.17
2023-05-10T07:05:50.904Z,3.50
2023-05-10T07:07:52.758Z,3.88
2023-05-10T07:09:54.621Z,3.43
2023-05-10T07:11:57.110Z,3.05
2023-05-10T07:13:58.923Z,3.13
2023-05-10T07:16:01.598Z,3.50
2023-05-10T07:20:06.327Z,2.97
2023-05-10T07:22:08.761Z,3.75
2023-05-10T07:24:10.650Z,3.80
2023-05-10T07:26:12.730Z,3.58
2023-05-10T07:28:15.642Z,2.92
2023-05-10T07:30:19.390Z,3.35
2023-05-10T07:32:21.536Z,2.67
2023-05-10T07:34:23.360Z,2.90
2023-05-10T07:36:25.385Z,2.80
2023-05-10T07:38:27.267Z,2.92
2023-05-10T07:40:29.409Z,2.83
2023-05-10T07:42:31.239Z,3.22
2023-05-10T07:44:33.114Z,3.00
2023-05-10T07:46:35.159Z,2.83
2023-05-10T07:48:38.113Z,3.15
2023-05-10T07:50:39.900Z,3.03
2023-05-10T07:52:41.730Z,3.07
2023-05-10T07:54:43.553Z,2.73
2023-05-10T07:56:48.416Z,2.90
2023-05-10T07:58:50.411Z,3.30
2023-05-10T08:00:52.252Z,3.08
2023-05-10T08:02:54.238Z,2.57
2023-05-10T08:04:56.903Z,2.42
2023-05-10T08:06:58.740Z,2.70
2023-05-10T08:09:00.924Z,2.63
2023-05-10T08:11:02.907Z,2.72
2023-05-10T08:13:04.867Z,2.92
2023-05-10T08:15:07.781Z,2.80
2023-05-10T08:17:09.736Z,3.10
2023-05-10T08:19:11.569Z,2.97
2023-05-10T08:21:13.964Z,2.58
2023-05-10T08:23:15.814Z,2.47
2023-05-10T08:25:17.807Z,2.40
2023-05-10T08:27:19.712Z,2.65
2023-05-10T08:29:21.554Z,2.67
2023-05-10T08:31:23.417Z,3.27
2023-05-10T08:33:25.360Z,2.88
2023-05-10T08:35:27.301Z,2.40
2023-05-10T08:37:31.198Z,2.55
2023-05-10T08:39:36.242Z,2.30
2023-05-10T08:41:38.075Z,2.53
2023-05-10T08:43:39.885Z,2.47
2023-05-10T08:45:42.953Z,2.70
2023-05-10T08:47:44.791Z,2.50
2023-05-10T08:49:47.537Z,2.53
2023-05-10T08:53:52.765Z,2.45
2023-05-10T08:55:54.610Z,2.80
2023-05-10T08:57:56.569Z,2.70
2023-05-10T08:59:58.436Z,2.85
2023-05-10T09:02:00.765Z,3.17
2023-05-10T09:04:02.675Z,2.65
2023-05-10T09:06:04.718Z,2.53
2023-05-10T09:08:07.392Z,2.85
2023-05-10T09:12:12.569Z,3.13
2023-05-10T09:14:14.579Z,2.47
2023-05-10T09:16:21.875Z,2.35
2023-05-10T09:18:26.027Z,3.13
2023-05-10T09:20:29.722Z,3.42
2023-05-10T09:22:32.142Z,3.60
2023-05-10T09:24:33.965Z,7.95
2023-05-10T09:26:36.789Z,6.18
2023-05-10T09:28:55.548Z,3.88
2023-05-10T09:30:57.539Z,2.67
2023-05-10T09:33:00.054Z,2.80
2023-05-10T09:37:09.263Z,3.67
2023-05-10T09:39:11.104Z,4.03
2023-05-10T09:41:19.936Z,3.87
2023-05-10T09:43:21.865Z,5.57
2023-05-10T09:45:28.266Z,3.47
2023-05-10T09:47:30.147Z,4.28
2023-05-10T09:49:32.149Z,8.52
2023-05-10T09:51:36.102Z,9.18
2023-05-10T09:53:38.575Z,6.45
2023-05-10T09:55:47.542Z,8.88
2023-05-10T09:57:49.975Z,12.10
2023-05-10T09:59:51.827Z,6.10
2023-05-10T10:01:57.547Z,6.40
2023-05-10T10:03:59.502Z,8.10
2023-05-10T10:06:01.420Z,5.75
2023-05-10T10:08:06.453Z,8.00
2023-05-10T10:10:12.510Z,7.80
2023-05-10T10:12:14.355Z,7.72
2023-05-10T10:14:16.174Z,5.70
2023-05-10T10:16:17.967Z,7.50
2023-05-10T10:18:20.787Z,8.73
2023-05-10T10:20:23.615Z,12.25
2023-05-10T10:22:25.571Z,8.38
2023-05-10T10:24:27.399Z,7.28
2023-05-10T10:26:29.217Z,8.27
2023-05-10T10:28:48.985Z,10.03
2023-05-10T10:30:52.030Z,9.82
2023-05-10T10:33:24.209Z,6.47
2023-05-10T10:35:32.614Z,4.90
2023-05-10T10:37:47.799Z,3.38
2023-05-10T10:39:50.851Z,2.92
2023-05-10T10:41:56.188Z,3.78
2023-05-10T10:44:31.935Z,3.75
2023-05-10T10:46:33.872Z,3.90
2023-05-10T10:48:35.761Z,9.15
2023-05-10T10:50:50.333Z,4.07
2023-05-10T10:52:53.126Z,3.42
2023-05-10T10:55:05.095Z,3.33
2023-05-10T10:57:15.541Z,3.97
2023-05-10T10:59:28.118Z,4.93
2023-05-10T11:01:34.423Z,4.47
2023-05-10T11:03:36.300Z,4.80
2023-05-10T11:05:44.342Z,3.95
2023-05-10T11:07:59.573Z,4.15
2023-05-10T11:10:06.381Z,3.83
2023-05-10T11:12:09.789Z,4.35
2023-05-10T11:14:11.955Z,4.20
2023-05-10T11:16:28.759Z,4.85
2023-05-10T11:18:31.343Z,4.20
2023-05-10T11:22:52.903Z,3.63
2023-05-10T11:24:59.656Z,3.20
2023-05-10T11:27:02.144Z,3.05
2023-05-10T11:29:05.942Z,3.83
2023-05-10T11:31:07.823Z,2.60
2023-05-10T11:33:09.991Z,3.50
2023-05-10T11:35:12.479Z,3.20
2023-05-10T11:37:14.396Z,3.10
2023-05-10T11:39:16.689Z,3.30
2023-05-10T11:41:19.289Z,3.03
2023-05-10T11:45:25.466Z,3.25
2023-05-10T11:47:27.361Z,3.17
2023-05-10T11:49:29.391Z,3.00
2023-05-10T11:51:33.640Z,3.22
2023-05-10T11:53:35.465Z,2.92
2023-05-10T11:55:37.312Z,3.15
2023-05-10T11:57:39.660Z,3.53
2023-05-10T11:59:43.091Z,3.40
2023-05-10T12:01:45.157Z,2.70
2023-05-10T12:03:47.208Z,2.88
2023-05-10T12:05:49.166Z,2.88
2023-05-10T12:07:51.006Z,3.28
2023-05-10T12:10:17.593Z,3.15
2023-05-10T12:12:19.681Z,3.20
2023-05-10T12:14:22.720Z,3.25
2023-05-10T12:16:26.601Z,2.83
2023-05-10T12:18:28.543Z,3.13
2023-05-10T12:20:30.720Z,3.33
2023-05-10T12:22:35.977Z,2.90
2023-05-10T12:24:39.230Z,2.97
2023-05-10T12:29:19.679Z,3.38
2023-05-10T12:31:21.791Z,3.28
2023-05-10T12:33:23.774Z,3.60
2023-05-10T12:35:25.998Z,4.43
2023-05-10T12:37:29.403Z,4.13
2023-05-10T12:39:44.501Z,3.63
2023-05-10T12:41:46.352Z,3.53
2023-05-10T12:43:49.205Z,3.47
2023-05-10T12:45:51.321Z,3.45
2023-05-10T12:47:53.274Z,3.45
2023-05-10T12:49:55.157Z,3.63
2023-05-10T12:51:57.044Z,3.80
2023-05-10T12:53:58.863Z,3.95
2023-05-10T12:56:00.739Z,3.40
2023-05-10T12:58:02.576Z,3.60
2023-05-10T13:00:06.058Z,3.60
2023-05-10T13:02:08.188Z,2.90
2023-05-10T13:04:10.179Z,3.10
2023-05-10T13:06:12.182Z,3.67
2023-05-10T13:08:14.307Z,3.28
2023-05-10T13:10:16.431Z,3.42
2023-05-10T13:12:18.492Z,3.20
2023-05-10T13:14:24.453Z,2.90
2023-05-10T13:16:26.756Z,3.25
2023-05-10T13:18:29.076Z,2.92
2023-05-10T13:20:31.368Z,2.85
2023-05-10T13:22:40.262Z,3.22
2023-05-10T13:24:42.693Z,3.15
2023-05-10T13:26:44.807Z,3.35
2023-05-10T13:28:47.124Z,3.30
2023-05-10T13:30:49.048Z,3.08
2023-05-10T13:32:51.339Z,3.58
2023-05-10T13:34:53.380Z,3.08
2023-05-10T13:36:56.980Z,3.28
2023-05-10T13:38:58.899Z,3.40
2023-05-10T13:41:01.112Z,3.28
2023-05-10T13:43:03.235Z,3.53
2023-05-10T13:45:05.700Z,2.95
2023-05-10T13:47:07.913Z,3.30
2023-05-10T13:49:12.951Z,3.45
2023-05-10T13:51:14.961Z,3.10
2023-05-10T13:53:17.042Z,3.20
2023-05-10T13:55:19.436Z,3.15
2023-05-10T13:57:21.929Z,3.10
2023-05-10T13:59:24.121Z,3.00
2023-05-10T14:01:26.075Z,3.70
2023-05-10T14:03:28.499Z,3.40
2023-05-10T14:07:32.468Z,3.47
2023-05-10T14:09:34.564Z,3.05
2023-05-10T14:11:36.676Z,3.03
2023-05-10T14:13:38.794Z,3.15
2023-05-10T14:15:40.816Z,3.30
2023-05-10T14:17:43.147Z,2.92
2023-05-10T14:19:45.125Z,2.78
2023-05-10T14:21:47.125Z,3.17
2023-05-10T14:23:49.025Z,3.00
2023-05-10T14:25:52.286Z,3.55
2023-05-10T14:27:55.729Z,3.05
2023-05-10T14:29:57.660Z,3.95
2023-05-10T14:31:59.601Z,3.85
2023-05-10T14:34:01.550Z,3.13
2023-05-10T14:36:04.546Z,3.38
2023-05-10T14:38:06.435Z,3.15
2023-05-10T14:40:10.341Z,3.67
2023-05-10T14:42:12.921Z,2.63
2023-05-10T14:46:17.081Z,2.78
2023-05-10T14:48:19.132Z,3.05
2023-05-10T14:50:35.106Z,2.95
2023-05-10T14:52:37.621Z,2.78
2023-05-10T14:54:39.813Z,3.22
2023-05-10T14:56:42.793Z,2.78
2023-05-10T14:58:44.679Z,2.50
2023-05-10T15:00:47.180Z,2.88
2023-05-10T15:02:49.720Z,2.95
2023-05-10T15:07:00.131Z,2.67
2023-05-10T15:09:02.720Z,3.42
2023-05-10T15:11:04.734Z,3.47
2023-05-10T15:13:06.933Z,3.08
2023-05-10T15:15:09.037Z,3.70
2023-05-10T15:17:11.203Z,2.92
2023-05-10T15:19:13.170Z,3.15
2023-05-10T15:21:15.120Z,3.78
2023-05-10T15:23:17.333Z,3.17
2023-05-10T15:25:19.401Z,3.05
2023-05-10T15:27:21.512Z,3.08
2023-05-10T15:29:23.636Z,2.90
2023-05-10T15:31:25.615Z,2.53
2023-05-10T15:33:28.533Z,2.67
2023-05-10T15:35:30.553Z,3.10
2023-05-10T15:37:32.426Z,3.22
2023-05-10T15:39:34.358Z,2.55
2023-05-10T15:41:36.855Z,3.80
2023-05-10T15:45:42.224Z,2.78
2023-05-10T15:47:45.257Z,2.70
2023-05-10T15:49:47.610Z,2.85
2023-05-10T15:51:49.544Z,2.92
2023-05-10T15:54:05.942Z,3.03
2023-05-10T15:56:11.480Z,3.05
2023-05-10T15:58:13.559Z,3.03
2023-05-10T16:00:15.949Z,3.38
2023-05-10T16:02:19.518Z,2.72
2023-05-10T16:04:21.789Z,2.65
2023-05-10T16:06:23.746Z,2.70
2023-05-10T16:08:26.141Z,2.75
2023-05-10T16:10:28.323Z,2.85
2023-05-10T16:12:31.538Z,3.10
2023-05-10T16:14:33.559Z,2.80
2023-05-10T16:16:35.954Z,2.83
2023-05-10T16:18:38.181Z,2.88
2023-05-10T16:20:40.225Z,3.15
2023-05-10T16:22:42.715Z,3.13
2023-05-10T16:24:44.744Z,2.83
2023-05-10T16:26:47.206Z,2.80
2023-05-10T16:28:49.602Z,2.90
2023-05-10T16:30:51.843Z,2.50
2023-05-10T16:32:54.546Z,2.88
2023-05-10T16:34:57.443Z,3.35
2023-05-10T16:36:59.531Z,2.97
2023-05-10T16:39:01.510Z,3.45
2023-05-10T16:41:06.829Z,2.83
2023-05-10T16:43:09.174Z,2.92
2023-05-10T16:45:11.821Z,3.08
2023-05-10T16:49:15.895Z,2.53
2023-05-10T16:51:17.882Z,2.95
2023-05-10T16:53:20.565Z,3.25
2023-05-10T16:55:25.407Z,3.50
2023-05-10T16:57:28.290Z,3.47
2023-05-10T16:59:30.634Z,2.88
2023-05-10T17:01:33.969Z,2.92
2023-05-10T17:03:36.856Z,3.28
2023-05-10T17:05:38.951Z,2.63
2023-05-10T17:07:41.173Z,2.90
2023-05-10T17:09:44.168Z,3.13
2023-05-10T17:11:47.388Z,3.60
2023-05-10T17:13:49.885Z,3.90
2023-05-10T17:15:52.686Z,3.22
2023-05-10T17:17:55.449Z,3.20
2023-05-10T17:24:02.624Z,3.25
2023-05-10T17:26:05.716Z,2.75
2023-05-10T17:28:07.601Z,2.75
2023-05-10T17:30:09.960Z,3.25
2023-05-10T17:32:11.895Z,2.72
2023-05-10T17:34:14.199Z,2.97
2023-05-10T17:36:16.500Z,2.90
2023-05-10T17:38:19.104Z,2.95
2023-05-10T17:40:21.242Z,2.85
2023-05-10T17:42:25.666Z,3.10
2023-05-10T17:44:27.740Z,2.92
2023-05-10T17:46:29.718Z,3.10
2023-05-10T17:48:32.690Z,2.45
2023-05-10T17:50:35.525Z,2.63
2023-05-10T17:52:38.901Z,2.95
2023-05-10T17:54:41.065Z,3.17
2023-05-10T17:56:43.074Z,3.55
2023-05-10T17:58:46.158Z,3.10
2023-05-10T18:00:48.291Z,3.25
2023-05-10T18:02:50.450Z,3.08
2023-05-10T18:04:52.683Z,3.05
2023-05-10T18:07:01.497Z,3.10
2023-05-10T18:09:05.252Z,3.25
2023-05-10T18:11:07.710Z,3.22
2023-05-10T18:13:12.380Z,4.10
2023-05-10T18:15:14.302Z,3.38
2023-05-10T18:17:16.245Z,3.22
2023-05-10T18:19:18.192Z,3.72
2023-05-10T18:21:20.553Z,3.17
2023-05-10T18:23:23.797Z,3.40
2023-05-10T18:25:26.120Z,3.40
2023-05-10T18:27:28.830Z,3.55
2023-05-10T18:29:31.429Z,3.17
2023-05-10T18:33:35.756Z,3.45
2023-05-10T18:35:40.468Z,3.53
2023-05-10T18:37:42.651Z,3.63
2023-05-10T18:39:44.650Z,3.20
2023-05-10T18:41:46.656Z,3.75
2023-05-10T18:43:48.909Z,3.95
2023-05-10T18:45:52.078Z,3.80
2023-05-10T18:47:54.620Z,3.15
2023-05-10T18:49:57.358Z,3.85
2023-05-10T18:51:59.275Z,3.35
2023-05-10T18:54:01.598Z,3.40
2023-05-10T18:56:03.544Z,3.83
2023-05-10T18:58:06.423Z,3.38
2023-05-10T19:00:12.447Z,2.83
2023-05-10T19:02:17.059Z,3.47
2023-05-10T19:04:19.749Z,2.92
2023-05-10T19:06:22.514Z,3.40
2023-05-10T19:08:26.015Z,4.05
2023-05-10T19:10:33.252Z,3.50
2023-05-10T19:12:36.300Z,3.72
2023-05-10T19:14:38.982Z,3.50
2023-05-10T19:16:44.338Z,3.72
2023-05-10T19:18:46.850Z,3.92
2023-05-10T19:20:48.942Z,3.60
2023-05-10T19:23:08.186Z,3.75
2023-05-10T19:25:13.492Z,3.40
2023-05-10T19:27:15.678Z,3.90
2023-05-10T19:29:17.718Z,3.85
2023-05-10T19:31:20.527Z,4.25
2023-05-10T19:33:22.903Z,3.95
2023-05-10T19:35:24.805Z,4.25
2023-05-10T19:37:27.235Z,4.05
2023-05-10T19:39:31.059Z,3.97
2023-05-10T19:41:32.975Z,4.78
2023-05-10T19:43:36.815Z,4.05
2023-05-10T19:45:39.992Z,4.38
2023-05-10T19:47:42.741Z,3.70
2023-05-10T19:49:44.739Z,4.15
2023-05-10T19:51:46.974Z,3.92
2023-05-10T19:53:49.068Z,3.50
2023-05-10T19:55:50.978Z,4.00
2023-05-10T19:57:53.166Z,3.42
2023-05-10T19:59:55.108Z,4.35
2023-05-10T20:01:57.142Z,5.03
2023-05-10T20:03:59.090Z,4.78
2023-05-10T20:06:01.359Z,5.03
2023-05-10T20:08:03.268Z,4.15
2023-05-10T20:10:05.466Z,4.13
2023-05-10T20:12:07.326Z,4.13
2023-05-10T20:14:09.365Z,4.18
2023-05-10T20:16:11.305Z,4.13
2023-05-10T20:18:13.375Z,4.28
2023-05-10T20:20:18.710Z,3.58
2023-05-10T20:22:20.699Z,3.88
2023-05-10T20:24:22.571Z,3.40
2023-05-10T20:26:24.462Z,3.70
2023-05-10T20:28:27.227Z,3.60
2023-05-10T20:30:29.252Z,3.58
2023-05-10T20:32:31.227Z,3.88
2023-05-10T20:34:34.827Z,3.45
2023-05-10T20:36:36.670Z,3.67
2023-05-10T20:38:38.900Z,4.30
2023-05-10T20:40:40.823Z,3.42
2023-05-10T20:42:42.679Z,4.15
2023-05-10T20:44:44.564Z,3.53
2023-05-10T20:46:46.398Z,3.65
2023-05-10T20:48:48.229Z,3.72
2023-05-10T20:50:51.793Z,3.50
2023-05-10T20:52:53.667Z,3.90
2023-05-10T20:54:55.643Z,3.80
2023-05-10T20:56:57.673Z,4.13
2023-05-10T20:58:59.550Z,3.60
2023-05-10T21:01:02.304Z,3.15
2023-05-10T21:05:06.739Z,3.67
2023-05-10T21:07:08.908Z,3.53
2023-05-10T21:09:10.792Z,3.92
2023-05-10T21:11:12.656Z,3.92
2023-05-10T21:13:14.491Z,3.20
2023-05-10T21:15:17.646Z,3.70
2023-05-10T21:17:20.202Z,3.55
2023-05-10T21:19:22.256Z,3.20
2023-05-10T21:21:24.121Z,3.30
2023-05-10T21:23:26.147Z,3.20
2023-05-10T21:25:27.991Z,3.47
2023-05-10T21:27:30.593Z,3.47
2023-05-10T21:29:32.453Z,3.70
2023-05-10T21:31:34.526Z,2.90
2023-05-10T21:33:36.392Z,3.70
2023-05-10T21:35:42.688Z,3.17
2023-05-10T21:37:44.554Z,3.17
2023-05-10T21:39:46.433Z,3.27
2023-05-10T21:41:48.295Z,4.00
2023-05-10T21:43:50.165Z,3.20
2023-05-10T21:45:52.049Z,3.88
2023-05-10T21:47:53.929Z,3.38
2023-05-10T21:49:55.785Z,3.85
2023-05-10T21:51:57.628Z,3.77
2023-05-10T21:53:59.530Z,4.43
2023-05-10T21:56:01.664Z,4.00
2023-05-10T21:58:03.487Z,3.92
2023-05-10T22:00:06.899Z,3.77
2023-05-10T22:02:08.759Z,3.38
2023-05-10T22:04:10.644Z,3.60
2023-05-10T22:06:12.615Z,3.40
2023-05-10T22:08:14.456Z,3.40
2023-05-10T22:10:16.421Z,4.20
2023-05-10T22:12:18.445Z,3.42
2023-05-10T22:14:20.312Z,4.30
2023-05-10T22:16:22.529Z,3.13
2023-05-10T22:18:24.414Z,3.72
2023-05-10T22:20:26.251Z,3.50
2023-05-10T22:22:28.057Z,3.37
2023-05-10T22:24:30.648Z,3.73
2023-05-10T22:26:32.495Z,3.40
2023-05-10T22:28:34.353Z,3.60
2023-05-10T22:30:36.233Z,3.95
2023-05-10T22:32:38.190Z,3.53
2023-05-10T22:34:40.259Z,3.60
2023-05-10T22:36:42.330Z,4.13
2023-05-10T22:38:44.209Z,3.42
2023-05-10T22:40:46.318Z,2.93
2023-05-10T22:42:48.303Z,4.20
2023-05-10T22:44:50.189Z,3.90
2023-05-10T22:46:52.337Z,3.97
2023-05-10T22:48:54.177Z,3.80
2023-05-10T22:50:56.037Z,3.90
2023-05-10T22:52:57.973Z,3.75
2023-05-10T22:54:59.808Z,3.88
2023-05-10T22:57:01.609Z,3.27
2023-05-10T22:59:03.490Z,3.53
2023-05-10T23:01:05.576Z,3.47
2023-05-10T23:03:07.596Z,3.50
2023-05-10T23:05:10.069Z,3.80
2023-05-10T23:07:12.233Z,3.97
2023-05-10T23:09:14.215Z,4.57
2023-05-10T23:11:16.458Z,4.03
2023-05-10T23:13:20.077Z,4.13
2023-05-10T23:15:22.060Z,4.22
2023-05-10T23:17:24.182Z,3.83
2023-05-10T23:19:26.183Z,3.72
2023-05-10T23:21:30.570Z,3.70
2023-05-10T23:23:34.812Z,4.00
2023-05-10T23:25:37.767Z,4.50
2023-05-10T23:27:39.820Z,4.03
2023-05-10T23:29:42.125Z,3.53
2023-05-10T23:31:46.359Z,4.07
2023-05-10T23:33:48.328Z,3.42
2023-05-10T23:35:50.573Z,3.90
2023-05-10T23:37:52.504Z,3.83
2023-05-10T23:39:54.437Z,4.05
2023-05-10T23:41:56.392Z,3.63
2023-05-10T23:43:58.292Z,3.95
2023-05-10T23:46:00.384Z,3.95
2023-05-10T23:48:02.344Z,3.88
2023-05-10T23:50:05.498Z,3.85
2023-05-10T23:52:07.625Z,3.97
2023-05-10T23:54:09.611Z,3.08
2023-05-10T23:56:11.958Z,3.40
2023-05-10T23:58:13.882Z,3.70
